Time;durP1;ratioP1;P1;durP2;ratioP2;P2;SDS_P1;SDS_P2;PMS_P1;PMS_P2;Temp;Humidity;BMP_temperature;BMP_pressure;BME280_temperature;BME280_humidity;BME280_pressure;Samples;Min_cycle;Max_cycle;Signal;HPM_P1;HPM_P2
2021/06/03 00:01:23;;;;;;;2.20;1.70;;;;;;;23.83;43.55;95339.34;4952100;28;20027;-72
2021/06/03 00:03:48;;;;;;;2.33;1.63;;;;;;;23.82;43.68;95346.03;4951668;28;20055;-72
2021/06/03 00:06:15;;;;;;;3.17;1.70;;;;;;;23.32;43.96;95265.69;4951881;28;20263;-72
2021/06/03 00:08:42;;;;;;;1.85;1.65;;;;;;;23.71;43.57;95318.81;4969298;28;20053;-72
2021/06/03 00:11:10;;;;;;;3.75;2.38;;;;;;;23.84;43.89;95335.34;4967785;28;20097;-72
2021/06/03 00:13:36;;;;;;;3.95;1.95;;;;;;;23.71;44.05;95329.72;4968143;28;20041;-75
2021/06/03 00:16:05;;;;;;;2.53;1.65;;;;;;;23.83;43.49;95342.06;4969005;28;20038;-74
2021/06/03 00:18:31;;;;;;;2.42;1.80;;;;;;;23.80;43.59;95337.63;4969090;28;20054;-74
2021/06/03 00:20:56;;;;;;;2.15;1.58;;;;;;;23.82;43.70;95343.31;4969156;28;20038;-74
2021/06/03 00:23:22;;;;;;;2.28;1.73;;;;;;;23.83;43.64;95342.06;4951851;28;20031;-74
2021/06/03 00:25:47;;;;;;;2.10;1.65;;;;;;;23.59;44.08;95309.91;4968946;28;20034;-73
2021/06/03 00:28:13;;;;;;;2.13;1.67;;;;;;;23.61;44.08;95321.06;4935846;28;20035;-74
2021/06/03 00:30:39;;;;;;;2.65;1.70;;;;;;;23.78;43.53;95340.09;4969034;28;20038;-74
2021/06/03 00:33:04;;;;;;;2.10;1.90;;;;;;;23.75;44.40;95341.09;4969084;28;20121;-73
2021/06/03 00:35:29;;;;;;;2.78;1.60;;;;;;;23.77;43.83;95339.34;4968266;28;20031;-74
2021/06/03 00:37:55;;;;;;;2.75;1.92;;;;;;;23.68;43.99;95322.56;4968848;28;20054;-73
2021/06/03 00:40:21;;;;;;;2.45;1.70;;;;;;;23.76;43.78;95334.41;4968888;28;20498;-72
2021/06/03 00:42:46;;;;;;;2.53;1.50;;;;;;;23.72;44.13;95336.66;4968701;28;20022;-71
2021/06/03 00:45:17;;;;;;;2.22;1.50;;;;;;;23.72;43.71;95337.41;4951478;28;20034;-72
2021/06/03 00:47:42;;;;;;;3.20;1.77;;;;;;;23.72;43.93;95347.56;4968471;28;20023;-74
2021/06/03 00:50:18;;;;;;;2.85;1.80;;;;;;;23.73;43.74;95349.06;4968483;28;20039;-74
2021/06/03 00:52:44;;;;;;;2.40;1.73;;;;;;;23.72;43.91;95347.56;4968410;28;20109;-72
2021/06/03 00:55:10;;;;;;;1.80;1.50;;;;;;;23.72;43.97;95342.09;4951344;28;20037;-72
2021/06/03 00:57:35;;;;;;;2.33;1.38;;;;;;;23.73;43.90;95343.59;4968372;28;20034;-72
2021/06/03 01:00:10;;;;;;;2.33;1.70;;;;;;;23.63;43.60;95334.19;4951143;28;20037;-72
2021/06/03 01:02:35;;;;;;;2.00;1.80;;;;;;;23.43;43.63;95304.53;4950635;28;20034;-72
2021/06/03 01:05:04;;;;;;;3.17;1.60;;;;;;;23.70;43.98;95333.69;4967787;28;20050;-72
2021/06/03 01:07:30;;;;;;;2.10;1.50;;;;;;;23.72;43.84;95336.66;4968441;28;20019;-72
2021/06/03 01:10:20;;;;;;;1.98;1.40;;;;;;;23.69;44.02;95337.66;4934937;28;20030;-72
2021/06/03 01:12:56;;;;;;;3.03;1.77;;;;;;;23.70;44.13;95339.16;4970181;28;20536;-74
2021/06/03 01:15:21;;;;;;;2.28;1.50;;;;;;;23.69;43.52;95337.66;4952336;28;20034;-71
2021/06/03 01:17:47;;;;;;;4.43;1.88;;;;;;;23.66;43.80;95344.13;4950661;28;20031;-71
2021/06/03 01:20:13;;;;;;;3.15;1.95;;;;;;;23.67;43.79;95354.50;4950952;28;20030;-71
2021/06/03 01:22:53;;;;;;;1.85;1.50;;;;;;;23.49;44.31;95332.53;4968241;28;20035;-72
2021/06/03 01:25:19;;;;;;;2.88;1.75;;;;;;;23.55;44.05;95341.41;4966944;28;20039;-74
2021/06/03 01:27:44;;;;;;;1.80;1.50;;;;;;;23.62;44.10;95351.81;4950873;28;20038;-74
2021/06/03 01:30:20;;;;;;;1.95;1.50;;;;;;;23.63;44.16;95342.34;4935381;28;20031;-74
2021/06/03 01:33:00;;;;;;;2.45;1.50;;;;;;;23.63;44.16;95347.81;4968399;28;20418;-74
2021/06/03 01:35:30;;;;;;;2.47;1.60;;;;;;;23.64;44.17;95346.59;4968590;28;20419;-74
2021/06/03 01:37:55;;;;;;;1.75;1.35;;;;;;;23.65;43.94;95348.09;4951111;28;20030;-74
2021/06/03 01:40:22;;;;;;;2.03;1.67;;;;;;;23.55;44.19;95338.69;4951049;28;20387;-74
2021/06/03 01:42:47;;;;;;;2.05;1.60;;;;;;;23.62;43.75;95343.63;4950776;28;20034;-74
2021/06/03 01:45:13;;;;;;;3.40;1.80;;;;;;;23.62;44.17;95343.63;4934259;28;20026;-74
2021/06/03 01:47:39;;;;;;;2.20;1.60;;;;;;;22.68;43.71;95213.69;4951200;28;20023;-74
2021/06/03 01:50:05;;;;;;;2.58;1.80;;;;;;;23.62;43.50;95344.34;4935105;28;20455;-74
2021/06/03 01:52:30;;;;;;;2.42;1.90;;;;;;;22.35;43.93;95148.44;4950814;28;20047;-73
2021/06/03 01:54:56;;;;;;;1.63;1.38;;;;;;;23.50;43.47;95325.84;4950748;28;20031;-74
2021/06/03 01:57:21;;;;;;;2.33;1.70;;;;;;;23.60;43.85;95340.63;4950976;28;20035;-74
2021/06/03 01:59:47;;;;;;;2.20;1.60;;;;;;;23.60;43.54;95344.13;4917505;28;20035;-74
2021/06/03 02:02:12;;;;;;;2.78;1.73;;;;;;;23.40;43.74;95311.00;4968474;28;20042;-74
2021/06/03 02:04:38;;;;;;;2.85;1.48;;;;;;;23.61;44.06;95347.59;4967753;28;20053;-76
2021/06/03 02:07:03;;;;;;;2.05;1.67;;;;;;;23.59;44.21;95347.34;4968014;28;20426;-73
2021/06/03 02:09:29;;;;;;;2.15;1.55;;;;;;;23.52;43.65;95334.25;4967935;28;20077;-73
2021/06/03 02:11:55;;;;;;;2.22;1.73;;;;;;;23.59;43.70;95347.34;4967715;28;20022;-73
2021/06/03 02:14:23;;;;;;;2.28;1.65;;;;;;;22.91;43.71;95254.69;4935853;28;20026;-73
2021/06/03 02:17:01;;;;;;;2.20;1.80;;;;;;;23.41;43.83;95334.28;4938400;28;20057;-73
2021/06/03 02:19:57;;;;;;;2.20;1.40;;;;;;;23.44;44.03;95331.28;4971625;28;20414;-73
2021/06/03 02:22:23;;;;;;;2.65;1.83;;;;;;;23.50;43.91;95361.28;4958929;28;20446;-73
2021/06/03 02:24:49;;;;;;;2.30;1.70;;;;;;;23.51;43.93;95365.47;4971268;28;20031;-73
2021/06/03 02:27:15;;;;;;;2.40;1.70;;;;;;;23.47;44.12;95359.53;4971229;28;20030;-73
2021/06/03 02:29:41;;;;;;;2.45;1.52;;;;;;;23.47;44.32;95354.09;4969285;28;20442;-73
2021/06/03 02:32:06;;;;;;;2.58;1.60;;;;;;;23.40;44.40;95349.16;4934482;29;20035;-73
2021/06/03 02:34:32;;;;;;;1.77;1.50;;;;;;;23.31;44.22;95335.81;4934553;29;20024;-73
2021/06/03 02:36:57;;;;;;;2.10;1.60;;;;;;;23.41;44.08;95361.53;4951559;29;20030;-73
2021/06/03 02:39:23;;;;;;;2.28;1.52;;;;;;;23.48;44.25;95369.19;4951713;29;20030;-73
2021/06/03 02:41:49;;;;;;;2.55;1.52;;;;;;;23.46;44.15;95360.78;4934368;29;20434;-73
2021/06/03 02:44:15;;;;;;;1.75;1.55;;;;;;;23.49;44.31;95367.94;4950553;29;20518;-72
2021/06/03 02:46:40;;;;;;;2.15;1.50;;;;;;;23.47;44.20;95365.00;4951355;29;20038;-73
2021/06/03 02:49:06;;;;;;;2.22;1.65;;;;;;;23.47;44.40;95371.19;4951642;29;20443;-73
2021/06/03 02:51:31;;;;;;;1.83;1.50;;;;;;;23.41;44.16;95361.53;4952020;29;20027;-73
2021/06/03 02:53:57;;;;;;;1.67;1.40;;;;;;;23.46;44.05;95371.69;4951498;29;20034;-73
2021/06/03 02:56:22;;;;;;;2.08;1.80;;;;;;;23.49;43.99;95376.13;4953416;28;20031;-73
2021/06/03 02:58:48;;;;;;;2.03;1.63;;;;;;;22.80;44.13;95275.03;4953254;28;20392;-73
2021/06/03 03:01:13;;;;;;;1.50;1.23;;;;;;;23.45;43.87;95372.91;4970325;28;20031;-73
2021/06/03 03:03:38;;;;;;;2.67;1.70;;;;;;;23.45;44.20;95372.91;4953043;28;20055;-72
2021/06/03 03:06:04;;;;;;;2.38;1.75;;;;;;;23.40;44.22;95370.97;4970623;28;20033;-74
2021/06/03 03:08:30;;;;;;;2.78;1.55;;;;;;;23.45;44.04;95372.91;4953499;28;20711;-72
2021/06/03 03:10:56;;;;;;;2.60;1.50;;;;;;;23.45;44.43;95378.38;4969957;28;20027;-73
2021/06/03 03:13:22;;;;;;;2.08;1.88;;;;;;;23.38;44.33;95370.72;4970167;28;20022;-73
2021/06/03 03:15:47;;;;;;;2.00;1.50;;;;;;;23.47;44.04;95386.81;4970165;28;20414;-72
2021/06/03 03:18:13;;;;;;;2.92;1.48;;;;;;;23.48;43.85;95391.00;4952746;28;20027;-73
2021/06/03 03:20:39;;;;;;;2.22;1.60;;;;;;;22.92;44.02;95315.34;4970172;28;20027;-72
2021/06/03 03:23:05;;;;;;;1.70;1.40;;;;;;;23.26;43.91;95360.34;4952334;28;20106;-72
2021/06/03 03:25:31;;;;;;;1.77;1.40;;;;;;;23.45;44.06;95386.53;4952720;28;20042;-72
2021/06/03 03:27:57;;;;;;;1.63;1.40;;;;;;;23.48;44.26;95388.28;4968576;28;20438;-71
2021/06/03 03:30:25;;;;;;;3.10;1.50;;;;;;;23.40;44.16;95370.97;4967956;28;20074;-74
2021/06/03 03:32:50;;;;;;;2.20;1.50;;;;;;;23.27;44.69;95368.00;4969570;28;20110;-73
2021/06/03 03:35:16;;;;;;;2.50;1.45;;;;;;;23.45;44.88;95394.72;4981776;28;20030;-74
2021/06/03 03:37:41;;;;;;;2.22;1.40;;;;;;;23.46;44.58;95396.94;4968925;28;20498;-73
2021/06/03 03:40:11;;;;;;;1.85;1.45;;;;;;;23.47;44.88;95397.72;4966840;28;20023;-73
2021/06/03 03:42:37;;;;;;;;;;;;;;;23.51;44.73;95398.16;4968943;28;20069;-74
2021/06/03 03:45:04;;;;;;;2.38;1.50;;;;;;;23.39;44.56;95369.47;4966389;28;19961;-72
2021/06/03 03:47:29;;;;;;;3.55;1.45;;;;;;;23.07;44.89;95322.00;4968261;28;20023;-71
2021/06/03 03:49:55;;;;;;;1.70;1.30;;;;;;;23.68;44.89;95402.38;4948041;28;20498;-72
2021/06/03 03:52:20;;;;;;;1.90;1.45;;;;;;;23.75;44.52;95409.28;4967482;28;20030;-72
2021/06/03 03:54:45;;;;;;;2.15;1.63;;;;;;;23.31;44.45;95319.47;4967104;28;20027;-71
2021/06/03 03:57:11;;;;;;;2.78;1.60;;;;;;;23.89;44.16;95401.53;4968452;28;20031;-72
2021/06/03 03:59:37;;;;;;;2.25;1.58;;;;;;;24.02;44.35;95403.69;4966510;28;20029;-72
2021/06/03 04:02:03;;;;;;;2.10;1.65;;;;;;;24.14;44.21;95411.31;4951733;28;20117;-71
2021/06/03 04:04:28;;;;;;;2.53;1.70;;;;;;;24.22;43.70;95406.81;4966469;28;20592;-71
2021/06/03 04:06:54;;;;;;;2.92;1.60;;;;;;;24.30;44.00;95418.66;4968744;28;20039;-71
2021/06/03 04:09:20;;;;;;;2.00;1.40;;;;;;;24.45;43.37;95408.19;4980141;28;20098;-71
2021/06/03 04:11:45;;;;;;;3.58;1.58;;;;;;;24.47;43.16;95402.97;4967998;28;20513;-72
2021/06/03 04:14:12;;;;;;;1.88;1.45;;;;;;;-140.79;100.00;63287.88;4962461;28;20031;-76
2021/06/03 04:16:37;;;;;;;2.67;1.42;;;;;;;-140.79;100.00;63287.88;4967628;28;20026;-75
2021/06/03 04:19:02;;;;;;;2.42;1.70;;;;;;;-140.79;100.00;63287.88;4966375;28;20030;-76
2021/06/03 04:21:28;;;;;;;2.38;1.55;;;;;;;-140.79;100.00;63287.88;4950675;28;20018;-76
2021/06/03 04:23:53;;;;;;;2.72;1.60;;;;;;;-140.79;100.00;63287.88;4951040;28;20093;-76
2021/06/03 04:26:19;;;;;;;2.30;1.60;;;;;;;-140.79;100.00;63287.88;4966230;28;20539;-76
2021/06/03 04:28:44;;;;;;;2.55;1.30;;;;;;;-140.79;100.00;63287.88;4964767;28;20412;-75
2021/06/03 04:31:10;;;;;;;2.20;1.70;;;;;;;-140.79;100.00;63287.88;4960158;28;20035;-75
2021/06/03 04:33:35;;;;;;;1.75;1.58;;;;;;;-140.79;100.00;63287.88;4947525;28;20030;-75
2021/06/03 04:36:01;;;;;;;1.88;1.42;;;;;;;-140.79;100.00;63287.88;4962646;28;20069;-74
2021/06/03 04:38:26;;;;;;;1.70;1.40;;;;;;;-140.79;100.00;63287.88;4965426;28;20023;-74
2021/06/03 04:40:52;;;;;;;2.75;1.88;;;;;;;-140.79;100.00;63287.88;4948645;28;20101;-76
2021/06/03 04:43:17;;;;;;;2.50;1.60;;;;;;;-140.79;100.00;63287.88;4965649;28;20114;-75
2021/06/03 04:45:43;;;;;;;4.82;1.70;;;;;;;-140.79;100.00;63287.88;4951442;28;20027;-76
2021/06/03 04:48:08;;;;;;;3.30;1.60;;;;;;;-140.79;100.00;63287.88;4967358;28;20038;-76
2021/06/03 04:50:35;;;;;;;3.22;1.40;;;;;;;-140.79;100.00;63287.88;4966981;28;20036;-75
2021/06/03 04:53:00;;;;;;;4.57;1.58;;;;;;;-140.79;100.00;63287.88;4950706;28;20589;-80
2021/06/03 04:55:25;;;;;;;3.90;2.05;;;;;;;-140.79;100.00;63287.88;4965730;28;20113;-75
2021/06/03 04:57:52;;;;;;;3.30;1.75;;;;;;;-140.79;100.00;63287.88;4967738;28;20737;-75
2021/06/03 05:00:21;;;;;;;4.13;1.70;;;;;;;-140.79;100.00;63287.88;4967039;28;20046;-73
2021/06/03 05:02:46;;;;;;;4.32;1.98;;;;;;;-140.79;100.00;63287.88;4968030;28;20049;-75
2021/06/03 05:05:13;;;;;;;8.70;2.30;;;;;;;-140.79;100.00;63287.88;4961299;28;20050;-76
2021/06/03 05:07:38;;;;;;;6.82;2.33;;;;;;;-140.79;100.00;63287.88;4964441;28;20035;-78
2021/06/03 05:10:05;;;;;;;6.80;1.88;;;;;;;-140.79;100.00;63287.88;4964384;28;20553;-75
2021/06/03 05:12:30;;;;;;;7.20;2.10;;;;;;;-140.79;100.00;63287.88;4952030;28;20438;-70
2021/06/03 05:14:56;;;;;;;5.63;1.80;;;;;;;-140.79;100.00;63287.88;4968825;28;20031;-76
2021/06/03 05:17:21;;;;;;;4.72;1.85;;;;;;;-140.79;100.00;63287.88;4968601;28;20026;-76
2021/06/03 05:19:47;;;;;;;4.85;2.15;;;;;;;-140.79;100.00;63287.88;4968209;28;20487;-78
2021/06/03 05:22:12;;;;;;;6.85;2.00;;;;;;;-140.79;100.00;63287.88;4976478;28;20034;-76
2021/06/03 05:24:37;;;;;;;7.32;2.58;;;;;;;-140.79;100.00;63287.88;4961865;28;20047;-76
2021/06/03 05:27:03;;;;;;;6.90;2.30;;;;;;;-140.79;100.00;63287.88;4951060;28;20045;-76
2021/06/03 05:29:29;;;;;;;3.53;2.10;;;;;;;-140.79;100.00;63287.88;4968264;28;20502;-74
2021/06/03 05:31:54;;;;;;;4.75;2.00;;;;;;;-140.79;100.00;63287.88;4968107;28;20030;-73
2021/06/03 05:34:20;;;;;;;4.28;1.90;;;;;;;-140.79;100.00;63287.88;4967958;28;20118;-74
2021/06/03 05:36:45;;;;;;;5.60;2.15;;;;;;;-140.79;100.00;63287.88;4967921;28;20039;-72
2021/06/03 05:39:11;;;;;;;5.90;2.03;;;;;;;-140.79;100.00;63287.88;4967646;28;20022;-76
2021/06/03 05:41:37;;;;;;;5.88;2.17;;;;;;;-140.79;100.00;63287.88;4950388;28;20030;-75
2021/06/03 05:44:09;;;;;;;7.30;2.10;;;;;;;-140.79;100.00;63287.88;4968744;28;20126;-80
2021/06/03 05:46:35;;;;;;;8.35;2.13;;;;;;;-140.79;100.00;63287.88;4969798;28;20058;-78
2021/06/03 05:49:01;;;;;;;5.32;2.50;;;;;;;-140.79;100.00;63287.88;4952423;28;20565;-78
2021/06/03 05:51:27;;;;;;;9.38;2.42;;;;;;;-140.79;100.00;63287.88;4964382;28;20507;-75
2021/06/03 05:53:52;;;;;;;7.43;2.20;;;;;;;-140.79;100.00;63287.88;4973036;28;20046;-74
2021/06/03 05:56:18;;;;;;;8.80;2.47;;;;;;;-140.79;100.00;63287.88;4965543;28;20502;-75
2021/06/03 05:58:44;;;;;;;8.10;3.08;;;;;;;-140.79;100.00;63287.88;4955181;28;20499;-75
2021/06/03 06:01:09;;;;;;;4.65;2.20;;;;;;;-140.79;100.00;63287.88;4964800;28;20027;-73
2021/06/03 06:03:46;;;;;;;6.50;2.50;;;;;;;-140.79;100.00;63287.88;4970247;28;20054;-74
2021/06/03 06:08:49;;;;;;;4.78;2.15;;;;;;;-140.79;100.00;63287.88;4968445;28;20171;-70
2021/06/03 06:11:15;;;;;;;7.95;2.42;;;;;;;-140.79;100.00;63287.88;4970220;28;20533;-74
2021/06/03 06:13:40;;;;;;;10.38;2.50;;;;;;;-140.79;100.00;63287.88;4967656;28;20035;-74
2021/06/03 06:16:06;;;;;;;13.18;2.50;;;;;;;-140.79;100.00;63287.88;4968058;28;20031;-73
2021/06/03 06:18:31;;;;;;;9.50;2.30;;;;;;;-140.79;100.00;63287.88;4969343;28;20031;-74
2021/06/03 06:20:57;;;;;;;7.50;2.25;;;;;;;-140.79;100.00;63287.88;4969775;28;20046;-74
2021/06/03 06:23:22;;;;;;;7.57;2.42;;;;;;;-140.79;100.00;63287.88;4969101;28;20035;-75
2021/06/03 06:25:48;;;;;;;8.18;2.50;;;;;;;-140.79;100.00;63287.88;4966385;28;20395;-74
2021/06/03 06:28:14;;;;;;;9.30;2.83;;;;;;;-140.79;100.00;63287.88;4969506;28;20502;-75
2021/06/03 06:30:40;;;;;;;9.27;2.58;;;;;;;-140.79;100.00;63287.88;4969635;28;20067;-74
2021/06/03 06:33:05;;;;;;;11.00;2.88;;;;;;;-140.79;100.00;63287.88;4954069;28;20030;-75
2021/06/03 06:35:40;;;;;;;7.72;2.30;;;;;;;-140.79;100.00;63287.88;4957442;28;20031;-74
2021/06/03 06:38:06;;;;;;;6.88;2.55;;;;;;;-140.79;100.00;63287.88;4974437;28;20735;-74
2021/06/03 06:40:32;;;;;;;8.88;2.45;;;;;;;-140.79;100.00;63287.88;4979432;28;20121;-75
2021/06/03 06:42:58;;;;;;;10.60;2.90;;;;;;;-140.79;100.00;63287.88;4950343;28;20023;-76
2021/06/03 06:45:28;;;;;;;7.47;2.67;;;;;;;-140.79;100.00;63287.88;4983610;28;20027;-76
2021/06/03 06:47:53;;;;;;;7.65;2.90;;;;;;;-140.79;100.00;63287.88;4975364;28;20030;-74
2021/06/03 06:50:19;;;;;;;6.75;2.60;;;;;;;-140.79;100.00;63287.88;4977468;28;20039;-76
2021/06/03 06:52:44;;;;;;;7.35;2.70;;;;;;;-140.79;100.00;63287.88;4944966;28;20034;-75
2021/06/03 06:55:10;;;;;;;10.82;2.90;;;;;;;-140.79;100.00;63287.88;4973373;28;20019;-75
2021/06/03 06:57:36;;;;;;;7.57;2.53;;;;;;;-140.79;100.00;63287.88;4956850;28;20018;-76
2021/06/03 07:00:07;;;;;;;8.45;2.78;;;;;;;-140.79;100.00;63287.88;4954718;28;20027;-75
2021/06/03 07:02:33;;;;;;;7.30;2.30;;;;;;;-140.79;100.00;63287.88;4974048;28;20018;-75
2021/06/03 07:04:58;;;;;;;10.48;3.03;;;;;;;-140.79;100.00;63287.88;4968909;28;20596;-75
2021/06/03 07:07:42;;;;;;;10.50;2.80;;;;;;;-140.79;100.00;63287.88;4971432;28;20031;-79
2021/06/03 07:10:08;;;;;;;7.85;2.47;;;;;;;-140.79;100.00;63287.88;4971940;28;20152;-74
2021/06/03 07:12:34;;;;;;;12.02;2.55;;;;;;;-140.79;100.00;63287.88;4973100;28;20477;-75
2021/06/03 07:15:00;;;;;;;8.45;3.33;;;;;;;-140.79;100.00;63287.88;4970800;28;20030;-76
2021/06/03 07:17:26;;;;;;;7.68;2.97;;;;;;;-140.79;100.00;63287.88;4970373;28;20117;-74
2021/06/03 07:19:52;;;;;;;11.95;3.28;;;;;;;-140.79;100.00;63287.88;4954175;28;20125;-74
2021/06/03 07:22:18;;;;;;;7.35;2.70;;;;;;;-140.79;100.00;63287.88;4971156;28;20041;-74
2021/06/03 07:24:44;;;;;;;9.13;2.78;;;;;;;-140.79;100.00;63287.88;4961475;28;20113;-74
2021/06/03 07:27:10;;;;;;;7.65;2.60;;;;;;;-140.79;100.00;63287.88;4946851;28;20031;-76
2021/06/03 07:29:36;;;;;;;8.35;2.65;;;;;;;-140.79;100.00;63287.88;4970708;28;20073;-76
2021/06/03 07:32:06;;;;;;;7.13;2.58;;;;;;;-140.79;100.00;63287.88;4963115;28;20073;-74
2021/06/03 07:34:33;;;;;;;8.25;2.80;;;;;;;-140.79;100.00;63287.88;4970447;28;20061;-75
2021/06/03 07:36:59;;;;;;;9.18;2.70;;;;;;;-140.79;100.00;63287.88;4972621;28;20034;-74
2021/06/03 07:39:24;;;;;;;7.90;2.60;;;;;;;-140.79;100.00;63287.88;4954250;28;20096;-75
2021/06/03 07:41:50;;;;;;;9.65;2.42;;;;;;;-140.79;100.00;63287.88;4966206;28;20812;-75
2021/06/03 07:44:16;;;;;;;7.00;2.45;;;;;;;-140.79;100.00;63287.88;4965791;28;20027;-75
2021/06/03 07:46:41;;;;;;;7.05;2.60;;;;;;;-140.79;100.00;63287.88;4968861;28;20078;-75
2021/06/03 07:49:07;;;;;;;8.27;3.10;;;;;;;-140.79;100.00;63287.88;4981472;28;20019;-74
2021/06/03 07:51:33;;;;;;;8.57;3.00;;;;;;;-140.79;100.00;63287.88;4947526;28;20027;-74
2021/06/03 07:53:58;;;;;;;6.72;2.83;;;;;;;-140.79;100.00;63287.88;4959876;28;20026;-74
2021/06/03 07:56:24;;;;;;;10.48;2.83;;;;;;;-140.79;100.00;63287.88;4937667;29;20717;-75
2021/06/03 07:58:49;;;;;;;5.90;2.40;;;;;;;-140.79;100.00;63287.88;4956185;29;20073;-76
2021/06/03 08:01:15;;;;;;;7.07;2.70;;;;;;;-140.79;100.00;63287.88;4937621;29;20031;-75
2021/06/03 08:03:41;;;;;;;8.82;2.83;;;;;;;-140.79;100.00;63287.88;4968565;28;20129;-74
2021/06/03 08:06:10;;;;;;;6.75;2.78;;;;;;;-140.79;100.00;63287.88;4959750;28;20569;-75
2021/06/03 08:08:37;;;;;;;7.10;2.50;;;;;;;-140.79;100.00;63287.88;4958953;28;20407;-76
2021/06/03 08:11:03;;;;;;;6.70;2.50;;;;;;;-140.79;100.00;63287.88;4984935;28;20093;-76
2021/06/03 08:13:29;;;;;;;14.48;3.17;;;;;;;-140.79;100.00;63287.88;4994057;28;20568;-75
2021/06/03 08:15:55;;;;;;;7.25;2.47;;;;;;;-140.79;100.00;63287.88;4978842;28;20033;-75
2021/06/03 08:18:20;;;;;;;9.30;2.40;;;;;;;-140.79;100.00;63287.88;4976353;28;20030;-75
2021/06/03 08:20:48;;;;;;;7.25;2.30;;;;;;;-140.79;100.00;63287.88;4959893;28;20023;-75
2021/06/03 08:23:14;;;;;;;5.57;2.85;;;;;;;-140.79;100.00;63287.88;4956084;28;20597;-73
2021/06/03 08:25:40;;;;;;;6.55;2.60;;;;;;;-140.79;100.00;63287.88;4973585;28;20053;-75
2021/06/03 08:28:05;;;;;;;5.72;2.80;;;;;;;-140.79;100.00;63287.88;4956099;28;20490;-74
2021/06/03 08:30:31;;;;;;;6.45;2.60;;;;;;;-140.79;100.00;63287.88;4956192;28;20038;-75
2021/06/03 08:32:57;;;;;;;5.40;2.50;;;;;;;-140.79;100.00;63287.88;4971535;28;20765;-76
2021/06/03 08:35:23;;;;;;;9.90;2.80;;;;;;;-140.79;100.00;63287.88;4982043;28;20030;-76
2021/06/03 08:37:51;;;;;;;6.30;2.35;;;;;;;-140.79;100.00;63287.88;4949064;29;20576;-75
2021/06/03 08:40:19;;;;;;;7.20;2.90;;;;;;;-140.79;100.00;63287.88;4985432;28;20027;-75
2021/06/03 08:42:44;;;;;;;7.18;2.53;;;;;;;-140.79;100.00;63287.88;4981003;28;20042;-75
2021/06/03 08:45:14;;;;;;;6.07;2.15;;;;;;;-140.79;100.00;63287.88;4970508;28;20045;-76
2021/06/03 08:47:40;;;;;;;;;;;;;;;-140.79;100.00;63287.88;4979945;28;20026;-74
2021/06/03 08:50:05;;;;;;;5.07;2.50;;;;;;;-140.79;100.00;63287.88;4958466;28;19914;-74
2021/06/03 08:52:31;;;;;;;6.20;2.20;;;;;;;-140.79;100.00;63287.88;4949547;29;20054;-74
2021/06/03 08:54:57;;;;;;;6.88;2.70;;;;;;;-140.79;100.00;63287.88;4917254;29;20035;-74
2021/06/03 08:57:23;;;;;;;8.70;2.35;;;;;;;-140.79;100.00;63287.88;4949985;29;20114;-74
2021/06/03 08:59:49;;;;;;;5.28;2.22;;;;;;;-140.79;100.00;63287.88;4944214;28;20129;-73
2021/06/03 09:02:14;;;;;;;5.53;2.20;;;;;;;-140.79;100.00;63287.88;4960046;28;20041;-76
2021/06/03 09:04:42;;;;;;;6.25;2.30;;;;;;;-140.79;100.00;63287.88;4983628;28;20062;-75
2021/06/03 09:07:31;;;;;;;5.03;2.10;;;;;;;-140.79;100.00;63287.88;4943146;28;20499;-78
2021/06/03 09:09:57;;;;;;;7.47;2.50;;;;;;;-140.79;100.00;63287.88;4968426;28;20423;-80
2021/06/03 09:12:35;;;;;;;5.93;2.40;;;;;;;-140.79;100.00;63287.88;4947498;28;20019;-74
2021/06/03 09:15:13;;;;;;;7.80;2.53;;;;;;;-140.79;100.00;63287.88;4967755;28;20037;-75
2021/06/03 09:17:48;;;;;;;6.40;2.58;;;;;;;-140.79;100.00;63287.88;4961384;28;20392;-74
2021/06/03 09:20:13;;;;;;;6.07;2.30;;;;;;;-140.79;100.00;63287.88;4949074;28;20053;-75
2021/06/03 09:22:42;;;;;;;4.45;2.20;;;;;;;-140.79;100.00;63287.88;4961977;28;20038;-73
2021/06/03 09:25:34;;;;;;;4.45;2.20;;;;;;;-140.79;100.00;63287.88;4984826;28;20019;-74
2021/06/03 09:28:21;;;;;;;4.70;2.17;;;;;;;-140.79;100.00;63287.88;4954870;28;20027;-73
2021/06/03 09:31:18;;;;;;;5.22;2.08;;;;;;;-140.79;100.00;63287.88;4962222;28;20185;-75
2021/06/03 09:33:48;;;;;;;4.15;2.08;;;;;;;-140.79;100.00;63287.88;4958192;28;20042;-73
2021/06/03 09:36:24;;;;;;;4.35;2.20;;;;;;;-140.79;100.00;63287.88;4983343;28;20041;-75
2021/06/03 09:39:15;;;;;;;4.00;2.00;;;;;;;-140.79;100.00;63287.88;4972705;28;20034;-74
2021/06/03 09:42:11;;;;;;;4.20;2.42;;;;;;;-140.79;100.00;63287.88;4962754;28;20039;-74
2021/06/03 09:44:39;;;;;;;4.55;2.08;;;;;;;-140.79;100.00;63287.88;4963759;28;20424;-73
2021/06/03 09:47:10;;;;;;;7.72;2.50;;;;;;;-140.79;100.00;63287.88;4965173;28;20478;-71
2021/06/03 09:49:38;;;;;;;4.47;2.10;;;;;;;-140.79;100.00;63287.88;4971005;28;20474;-69
2021/06/03 09:52:11;;;;;;;4.22;1.90;;;;;;;-140.79;100.00;63287.88;4964054;28;20533;-69
2021/06/03 09:54:37;;;;;;;2.67;1.80;;;;;;;-140.79;100.00;63287.88;4967903;28;20029;-69
2021/06/03 09:57:04;;;;;;;3.65;1.90;;;;;;;-140.79;100.00;63287.88;4963968;28;20023;-69
2021/06/03 09:59:34;;;;;;;3.13;1.80;;;;;;;-140.79;100.00;63287.88;4969548;28;20498;-69
2021/06/03 10:02:06;;;;;;;4.23;2.10;;;;;;;-140.79;100.00;63287.88;4942944;28;20093;-69
2021/06/03 10:04:36;;;;;;;4.55;1.95;;;;;;;-140.79;100.00;63287.88;4949009;29;20182;-69
2021/06/03 10:07:04;;;;;;;4.18;2.05;;;;;;;-140.79;100.00;63287.88;4949763;28;20031;-69
2021/06/03 10:09:42;;;;;;;2.33;1.90;;;;;;;-140.79;100.00;63287.88;4951297;29;20055;-69
2021/06/03 10:12:10;;;;;;;3.55;2.00;;;;;;;-140.79;100.00;63287.88;4948812;28;20852;-69
2021/06/03 10:14:37;;;;;;;3.05;2.10;;;;;;;-140.79;100.00;63287.88;4951714;28;20066;-69
2021/06/03 10:17:16;;;;;;;4.35;1.90;;;;;;;-140.79;100.00;63287.88;4946021;29;20118;-68
2021/06/03 10:19:45;;;;;;;3.85;1.98;;;;;;;-140.79;100.00;63287.88;4937477;29;20096;-69
2021/06/03 10:22:21;;;;;;;2.38;1.48;;;;;;;-140.79;100.00;63287.88;4944857;29;20073;-69
2021/06/03 10:24:58;;;;;;;3.33;1.65;;;;;;;-140.79;100.00;63287.88;4938549;29;20900;-69
2021/06/03 10:27:29;;;;;;;3.83;1.80;;;;;;;-140.79;100.00;63287.88;4928616;29;20036;-69
2021/06/03 10:29:55;;;;;;;3.80;2.15;;;;;;;-140.79;100.00;63287.88;4965282;28;20034;-69
2021/06/03 10:32:23;;;;;;;5.03;1.88;;;;;;;-140.79;100.00;63287.88;4943832;29;20514;-69
2021/06/03 10:34:50;;;;;;;4.13;1.75;;;;;;;-140.79;100.00;63287.88;4937039;29;20035;-69
2021/06/03 10:37:16;;;;;;;2.15;1.65;;;;;;;-140.79;100.00;63287.88;4958069;28;20354;-69
2021/06/03 10:39:43;;;;;;;4.47;1.85;;;;;;;-140.79;100.00;63287.88;4934125;29;20066;-69
2021/06/03 10:42:10;;;;;;;4.43;1.88;;;;;;;-140.79;100.00;63287.88;4973722;28;20125;-69
2021/06/03 10:44:36;;;;;;;2.33;1.70;;;;;;;-140.79;100.00;63287.88;4942962;28;20038;-69
2021/06/03 10:47:01;;;;;;;4.18;1.90;;;;;;;-140.79;100.00;63287.88;4927672;29;20031;-69
2021/06/03 10:49:30;;;;;;;3.13;1.77;;;;;;;-140.79;100.00;63287.88;4951128;28;20435;-69
2021/06/03 10:51:56;;;;;;;3.05;1.85;;;;;;;-140.79;100.00;63287.88;4924581;29;20067;-69
2021/06/03 10:54:40;;;;;;;5.60;2.05;;;;;;;-140.79;100.00;63287.88;4938707;28;20023;-68
2021/06/03 10:57:06;;;;;;;4.30;2.05;;;;;;;-140.79;100.00;63287.88;4945544;28;20105;-70
2021/06/03 10:59:32;;;;;;;5.72;1.80;;;;;;;-140.79;100.00;63287.88;4948923;28;20446;-71
2021/06/03 11:01:59;;;;;;;6.35;1.98;;;;;;;-140.79;100.00;63287.88;4946055;28;20074;-69
2021/06/03 11:04:28;;;;;;;5.03;2.13;;;;;;;-140.79;100.00;63287.88;4948870;28;20122;-72
2021/06/03 11:06:54;;;;;;;2.85;1.42;;;;;;;-140.79;100.00;63287.88;4943614;28;20046;-70
2021/06/03 11:09:27;;;;;;;5.50;2.08;;;;;;;-140.79;100.00;63287.88;4946601;28;20031;-70
2021/06/03 11:12:05;;;;;;;4.20;1.77;;;;;;;-140.79;100.00;63287.88;4946180;28;20427;-71
2021/06/03 11:14:31;;;;;;;2.40;1.92;;;;;;;-140.79;100.00;63287.88;4942150;28;20049;-70
2021/06/03 11:16:56;;;;;;;3.80;1.85;;;;;;;-140.79;100.00;63287.88;4943774;29;20031;-70
2021/06/03 11:19:26;;;;;;;2.88;1.77;;;;;;;-140.79;100.00;63287.88;4948426;28;20038;-71
2021/06/03 11:21:56;;;;;;;5.18;1.90;;;;;;;-140.79;100.00;63287.88;4945082;28;20035;-71
2021/06/03 11:24:24;;;;;;;2.83;2.08;;;;;;;-140.79;100.00;63287.88;4947193;28;20057;-72